Highland City, Florida
Current Conditions -  °F | °C
As of 1:15 AM on Saturday 29 Nov 2014 (Local Time) from KBOW Reporting Station
Clear Clear  
Wind Chill: 43°   Ceiling: Unl
Heat Index: 46°   Visibility: 10mi
Dew Point: 43°   Wind: 7mph
Humidity: 87%   Direction: 340°NNW
Pressure: 30.28"   Gusts: NA
Location:  27.97°N, 81.88°W
Report Text: KBOW 290615Z AUTO 34006KT 10SM CLR 08/06 A3028 RMK AO2
Loading
Personal Weather Stations






























Interactive Weather Map New forecast layout! Learn more

10-Day Weather Forecast

Advertisements
Track Severe Weather on mobile